Delft, Netherlands
Current Conditions -  °F | °C
As of 12:55 PM on Friday 24 Oct 2014 (Local Time) from EHRD Reporting Station
Light Rain Light Rain  
Wind Chill: 54°   Ceiling: 600
Heat Index: 54°   Visibility: 1.7mi
Dew Point: 52°   Wind: 13mph
Humidity: 94%   Direction: 180°S
Pressure: 30.03"   Gusts: NA
Location:  52°N, 4.36°E
Report Text: EHRD 241055Z AUTO 18011KT 150V250 2800 -RA FEW005 BKN006 OVC00712/11 Q1017 RERA REDZ BECMG 6000 BKN012
Loading
Personal Weather Stations






























Interactive Weather Map
Tropical Storm Tracking
New forecast layout! Learn more

10-Day Weather Forecast

Advertisements
Track Severe Weather on mobile